Time;durP1;ratioP1;P1;durP2;ratioP2;P2;SDS_P1;SDS_P2;PMS_P1;PMS_P2;Temp;Humidity;BMP_temperature;BMP_pressure;BME280_temperature;BME280_humidity;BME280_pressure;Samples;Min_cycle;Max_cycle;Signal;HPM_P1;HPM_P2
2021/12/20 05:10:01;;;;;;;32.57;13.67;;;6.70;52.40;;;;;;21268;6534;67906;-85
2021/12/20 05:12:23;;;;;;;23.13;13.00;;;6.40;52.60;;;;;;20781;6826;120914;-85
2021/12/20 05:14:48;;;;;;;37.40;17.50;;;6.00;53.20;;;;;;20515;6832;279178;-85
2021/12/20 05:17:14;;;;;;;21.50;14.03;;;5.90;54.10;;;;;;20566;6891;119068;-85
2021/12/20 05:19:40;;;;;;;58.33;18.08;;;5.80;54.20;;;;;;20395;6886;280297;-84
2021/12/20 05:22:05;;;;;;;22.25;13.13;;;5.80;54.90;;;;;;20618;6876;123502;-86
2021/12/20 05:24:31;;;;;;;20.60;12.63;;;5.60;54.60;;;;;;20660;6887;121105;-86
2021/12/20 05:26:56;;;;;;;20.17;12.53;;;5.40;55.10;;;;;;20563;6887;118266;-86
2021/12/20 05:29:24;;;;;;;23.90;17.17;;;5.30;56.40;;;;;;20349;6903;312993;-88
2021/12/20 05:31:48;;;;;;;30.70;18.20;;;5.20;56.30;;;;;;20350;6897;300073;-87
2021/12/20 05:34:17;;;;;;;24.33;14.17;;;5.50;56.00;;;;;;20678;6685;68321;-86
2021/12/20 05:36:42;;;;;;;22.60;13.20;;;5.50;55.70;;;;;;20531;6897;117605;-87
2021/12/20 05:39:08;;;;;;;23.27;13.07;;;5.30;56.00;;;;;;20599;6883;118308;-86
2021/12/20 05:41:33;;;;;;;24.53;16.60;;;5.10;56.40;;;;;;20378;6883;313166;-89
2021/12/20 05:43:59;;;;;;;26.48;17.42;;;5.10;57.10;;;;;;20509;6868;337391;-90
2021/12/20 05:46:24;;;;;;;24.08;13.73;;;5.40;56.60;;;;;;20664;6868;118157;-90
2021/12/20 05:48:50;;;;;;;27.60;17.87;;;5.40;56.30;;;;;;20441;6868;309230;-89
2021/12/20 05:51:16;;;;;;;29.90;17.73;;;5.50;56.60;;;;;;20472;6868;338687;-90
2021/12/20 05:53:41;;;;;;;26.83;14.15;;;5.70;56.20;;;;;;20694;6868;118036;-89
2021/12/20 05:56:07;;;;;;;19.63;13.00;;;5.60;55.90;;;;;;20665;6868;117835;-89
2021/12/20 05:58:32;;;;;;;23.93;12.90;;;5.40;56.30;;;;;;20667;6868;122664;-89
2021/12/20 06:00:58;;;;;;;24.73;16.62;;;5.10;56.70;;;;;;20436;6868;303625;-90
2021/12/20 06:03:23;;;;;;;35.63;18.98;;;5.20;57.40;;;;;;20467;6868;280733;-89
2021/12/20 06:05:49;;;;;;;27.92;14.55;;;5.50;56.80;;;;;;20666;6868;116660;-89
2021/12/20 06:08:15;;;;;;;22.00;13.53;;;5.30;56.70;;;;;;20662;6868;117631;-89
2021/12/20 06:10:41;;;;;;;21.10;14.10;;;5.30;56.70;;;;;;20677;6868;117623;-89
2021/12/20 06:13:06;;;;;;;30.33;17.43;;;5.10;57.20;;;;;;20439;6868;287115;-89
2021/12/20 06:15:32;;;;;;;24.93;13.10;;;5.20;57.70;;;;;;20664;6868;118069;-88
2021/12/20 06:17:58;;;;;;;23.27;13.07;;;5.20;57.30;;;;;;20668;6868;118131;-86
2021/12/20 06:20:23;;;;;;;29.25;16.98;;;5.00;57.40;;;;;;20459;6867;313711;-89
2021/12/20 06:22:53;;;;;;;27.47;18.00;;;5.20;57.90;;;;;;20456;6868;279704;-89
2021/12/20 06:25:18;;;;;;;31.47;17.50;;;5.50;57.20;;;;;;20256;6883;279832;-88
2021/12/20 06:27:44;;;;;;;24.12;15.13;;;5.70;56.40;;;;;;20668;6868;118105;-88
2021/12/20 06:30:09;;;;;;;33.10;17.35;;;5.60;56.00;;;;;;20458;6868;338899;-87
2021/12/20 06:32:35;;;;;;;28.90;13.67;;;5.60;56.50;;;;;;20674;6868;117446;-88
2021/12/20 06:35:00;;;;;;;31.37;17.35;;;5.50;56.40;;;;;;20474;6868;278433;-88
2021/12/20 06:37:26;;;;;;;30.23;18.37;;;5.50;56.60;;;;;;20495;6868;343610;-88
2021/12/20 06:39:52;;;;;;;21.27;13.90;;;5.70;56.20;;;;;;20662;6868;118214;-87
2021/12/20 06:42:18;;;;;;;24.37;16.37;;;5.60;56.00;;;;;;20507;6662;336417;-86
2021/12/20 06:44:54;;;;;;;24.90;16.67;;;5.60;56.40;;;;;;20511;6791;337539;-87
2021/12/20 06:47:35;;;;;;;18.07;13.00;;;5.80;55.90;;;;;;20802;6824;116649;-86
2021/12/20 06:50:06;;;;;;;19.73;12.37;;;5.60;55.80;;;;;;20717;6799;121754;-86
2021/12/20 06:52:41;;;;;;;22.47;16.40;;;5.30;56.40;;;;;;20478;6846;312998;-87
2021/12/20 06:55:17;;;;;;;20.43;13.57;;;5.40;56.90;;;;;;20695;6772;117708;-88
2021/12/20 06:57:52;;;;;;;18.97;12.63;;;5.30;56.70;;;;;;20465;6832;117541;-87
2021/12/20 07:00:28;;;;;;;17.73;13.10;;;5.00;57.00;;;;;;20776;6818;117782;-87
2021/12/20 07:03:07;;;;;;;17.23;12.23;;;4.80;57.70;;;;;;20769;6818;117436;-86
2021/12/20 07:05:39;;;;;;;18.65;14.85;;;4.70;57.80;;;;;;20499;6749;322851;-88
2021/12/20 12:47:33;;;;;;;17.00;15.40;;;8.90;48.20;;;;;;21010;6563;280760;-85
2021/12/20 12:50:00;;;;;;;18.30;15.60;;;8.80;48.60;;;;;;20438;6870;279734;-89
2021/12/20 12:52:24;;;;;;;15.75;14.15;;;8.70;48.70;;;;;;20471;6850;309215;-87
2021/12/20 12:54:56;;;;;;;16.83;15.15;;;8.60;49.20;;;;;;20389;6853;300609;-87
2021/12/20 12:57:22;;;;;;;18.17;15.70;;;8.20;49.80;;;;;;20492;6917;124642;-87
2021/12/20 12:59:48;;;;;;;16.92;15.23;;;8.20;49.40;;;;;;20305;6919;303698;-87
2021/12/20 13:02:22;;;;;;;17.08;15.30;;;8.10;50.20;;;;;;20545;6917;119207;-90
2021/12/20 13:05:03;;;;;;;16.93;13.30;;;7.80;50.40;;;;;;20536;6663;120002;-87
2021/12/20 13:07:40;;;;;;;16.63;14.17;;;7.40;50.80;;;;;;20754;6776;118590;-83
2021/12/20 13:10:19;;;;;;;18.10;16.27;;;7.00;51.50;;;;;;20485;6800;345329;-83
2021/12/20 13:12:53;;;;;;;17.85;15.45;;;7.10;52.20;;;;;;20455;6793;342466;-84
2021/12/20 13:15:44;;;;;;;22.67;16.70;;;7.40;51.90;;;;;;20477;6835;118676;-84
2021/12/20 13:18:09;;;;;;;14.33;12.63;;;7.20;51.70;;;;;;20720;6852;118161;-84
2021/12/20 13:20:56;;;;;;;19.90;17.77;;;6.90;52.10;;;;;;20509;6780;286551;-84
2021/12/20 13:23:34;;;;;;;19.25;16.67;;;7.00;52.50;;;;;;20427;6810;299250;-87
2021/12/20 13:26:11;;;;;;;17.83;16.02;;;7.30;51.80;;;;;;20319;6793;311840;-85
2021/12/20 13:28:57;;;;;;;19.27;16.08;;;7.60;51.60;;;;;;20509;6794;281252;-85
2021/12/20 13:31:37;;;;;;;;;;;;;;;;;;;;;
2021/12/20 13:34:10;;;;;;;18.33;16.53;;;7.70;51.80;;;;;;20489;6782;307943;-88
2021/12/20 13:36:39;;;;;;;17.77;14.20;;;7.60;51.60;;;;;;20656;6814;117876;-84
2021/12/20 13:39:18;;;;;;;14.53;12.93;;;7.60;51.80;;;;;;20690;6798;122964;-84
2021/12/20 13:41:53;;;;;;;14.37;12.00;;;7.40;52.20;;;;;;20712;6798;117575;-85
2021/12/20 13:44:26;;;;;;;14.90;13.47;;;7.20;52.50;;;;;;20441;6797;285409;-85
2021/12/20 13:47:02;;;;;;;14.20;12.67;;;7.40;52.40;;;;;;20681;6797;117770;-84
2021/12/20 13:49:37;;;;;;;12.43;10.40;;;7.40;51.80;;;;;;20715;6794;118174;-84
2021/12/20 13:52:12;;;;;;;12.73;10.27;;;7.30;52.30;;;;;;20674;6808;118038;-85
2021/12/20 13:54:48;;;;;;;13.50;11.30;;;7.10;52.30;;;;;;20547;6823;117678;-85
2021/12/20 13:57:24;;;;;;;12.93;11.20;;;7.00;52.40;;;;;;20719;6808;117695;-84
2021/12/20 13:59:59;;;;;;;13.40;12.00;;;7.00;52.70;;;;;;20508;6793;324923;-83
2021/12/20 14:02:35;;;;;;;11.90;9.73;;;7.30;52.20;;;;;;20657;6806;117864;-85
2021/12/20 14:05:13;;;;;;;12.90;10.63;;;7.40;51.70;;;;;;20600;6805;117670;-84
2021/12/20 14:07:53;;;;;;;12.43;10.57;;;7.30;51.80;;;;;;20695;6807;117751;-84
2021/12/20 14:10:31;;;;;;;12.40;11.10;;;7.30;52.20;;;;;;20697;6807;118011;-84
2021/12/20 14:13:06;;;;;;;13.67;12.07;;;7.30;52.40;;;;;;20367;6815;311444;-84
2021/12/20 14:15:45;;;;;;;11.53;10.33;;;7.60;51.80;;;;;;20520;6810;124437;-84
2021/12/20 14:18:19;;;;;;;13.27;11.07;;;7.70;51.60;;;;;;20709;6796;117721;-84
2021/12/20 14:20:56;;;;;;;11.80;10.47;;;7.70;51.60;;;;;;20682;6814;122153;-84
2021/12/20 14:23:35;;;;;;;15.03;13.43;;;7.60;51.80;;;;;;20443;6811;279533;-84
2021/12/20 14:26:16;;;;;;;13.57;11.13;;;7.70;51.20;;;;;;20708;6796;118566;-85
2021/12/20 14:28:50;;;;;;;11.23;9.90;;;7.80;51.00;;;;;;20641;6811;121520;-84
2021/12/20 14:31:27;;;;;;;12.70;11.50;;;7.70;51.30;;;;;;20457;6812;312845;-84
2021/12/20 14:34:01;;;;;;;10.00;8.87;;;7.90;50.80;;;;;;20476;6797;326886;-83
2021/12/20 14:36:39;;;;;;;10.27;9.35;;;8.30;48.20;;;;;;20547;6794;313152;-84
2021/12/20 14:39:18;;;;;;;8.87;6.60;;;8.50;45.50;;;;;;20670;6808;119626;-84
2021/12/20 14:41:56;;;;;;;10.90;7.83;;;8.40;45.90;;;;;;20671;6799;117032;-84
2021/12/20 14:44:43;;;;;;;8.67;7.87;;;8.10;46.70;;;;;;20701;6784;117175;-84
2021/12/20 14:47:18;;;;;;;8.50;6.90;;;7.90;47.50;;;;;;20748;6779;119226;-84
2021/12/20 14:49:57;;;;;;;7.27;6.57;;;7.70;48.00;;;;;;20685;6810;117425;-83
2021/12/20 14:52:28;;;;;;;8.60;7.07;;;7.50;48.40;;;;;;20730;6783;117276;-83
2021/12/20 14:55:07;;;;;;;8.47;6.33;;;7.40;48.70;;;;;;20627;6783;117050;-83
2021/12/20 14:57:49;;;;;;;9.05;8.15;;;7.20;48.70;;;;;;20487;6797;338458;-84
2021/12/20 15:00:25;;;;;;;8.90;7.53;;;7.50;48.20;;;;;;20722;6795;119856;-84
2021/12/20 15:03:00;;;;;;;9.93;8.93;;;7.60;48.00;;;;;;20491;6795;308300;-84
2021/12/20 15:05:35;;;;;;;11.10;9.32;;;7.70;47.50;;;;;;20338;6808;310252;-84
2021/12/20 15:08:11;;;;;;;7.70;7.00;;;8.10;47.90;;;;;;20719;6784;117403;-84
2021/12/20 15:10:49;;;;;;;10.23;8.60;;;8.00;47.30;;;;;;20681;6808;117261;-84
2021/12/20 15:13:22;;;;;;;9.20;8.30;;;7.70;47.60;;;;;;20665;6806;117294;-84
2021/12/20 15:15:58;;;;;;;11.82;9.10;;;7.40;47.90;;;;;;20247;6811;342168;-84
2021/12/20 15:18:35;;;;;;;8.33;7.53;;;7.50;47.10;;;;;;20674;6810;117780;-84
2021/12/20 15:21:09;;;;;;;10.93;7.67;;;7.50;47.40;;;;;;20685;6812;143989;-84
2021/12/20 15:23:44;;;;;;;11.40;10.20;;;7.20;47.70;;;;;;20500;6806;307063;-86
2021/12/20 15:26:20;;;;;;;9.95;8.77;;;7.30;47.20;;;;;;20560;6776;307779;-84
2021/12/20 15:28:59;;;;;;;8.67;7.23;;;7.60;47.30;;;;;;20752;6776;117133;-85
2021/12/20 15:31:32;;;;;;;7.27;6.00;;;7.10;48.30;;;;;;20772;6776;118921;-84
2021/12/20 15:34:07;;;;;;;9.10;7.00;;;7.10;47.80;;;;;;20530;6776;284546;-84
2021/12/20 15:36:43;;;;;;;13.70;9.87;;;7.20;47.10;;;;;;20778;6773;117162;-84
2021/12/20 15:39:18;;;;;;;40.13;22.83;;;7.00;47.20;;;;;;20769;6773;122984;-84
2021/12/20 15:41:59;;;;;;;17.63;10.70;;;6.80;47.10;;;;;;20578;6772;309299;-84
2021/12/20 15:44:33;;;;;;;12.07;9.10;;;6.80;47.10;;;;;;20726;6772;117576;-84
2021/12/20 15:47:08;;;;;;;32.00;21.23;;;6.70;47.00;;;;;;20516;6787;313013;-84
2021/12/20 15:49:44;;;;;;;12.65;10.00;;;6.80;47.50;;;;;;20646;6787;335340;-84
2021/12/20 15:52:19;;;;;;;9.13;7.47;;;7.00;46.60;;;;;;20844;6787;67906;-84
2021/12/20 15:54:55;;;;;;;9.73;8.20;;;6.90;46.80;;;;;;20675;6787;117405;-83
2021/12/20 15:57:30;;;;;;;11.77;7.53;;;6.50;47.30;;;;;;20718;6791;118813;-86
2021/12/20 16:00:07;;;;;;;9.33;6.87;;;6.00;48.40;;;;;;20718;6789;117369;-86
2021/12/20 16:02:43;;;;;;;11.20;9.77;;;5.80;48.70;;;;;;20709;6808;117209;-89
2021/12/20 16:05:19;;;;;;;15.20;9.60;;;5.80;48.70;;;;;;20581;6799;117551;-86
2021/12/20 16:07:54;;;;;;;7.65;6.72;;;5.60;48.70;;;;;;20516;6800;341496;-88
2021/12/20 16:10:30;;;;;;;9.10;7.00;;;5.80;48.50;;;;;;20726;6800;116532;-87
2021/12/20 16:13:06;;;;;;;11.07;6.17;;;5.80;48.20;;;;;;20708;6798;117623;-85
2021/12/20 16:15:41;;;;;;;8.80;6.40;;;5.60;48.50;;;;;;20375;6793;311764;-85
2021/12/20 16:18:17;;;;;;;7.17;5.80;;;5.80;49.10;;;;;;20759;6786;117306;-84
2021/12/20 16:20:53;;;;;;;6.73;4.73;;;5.80;48.80;;;;;;20686;6803;118335;-88
2021/12/20 16:23:28;;;;;;;6.77;5.03;;;5.60;49.10;;;;;;20767;6785;118440;-85
2021/12/20 16:26:03;;;;;;;8.23;4.17;;;5.40;49.20;;;;;;20557;6857;121028;-85
2021/12/20 16:28:39;;;;;;;8.53;5.13;;;5.20;49.30;;;;;;20802;6786;116547;-86
2021/12/20 16:31:14;;;;;;;8.83;4.90;;;5.10;49.60;;;;;;20751;6786;118816;-85
2021/12/20 16:33:51;;;;;;;8.20;6.10;;;5.20;50.00;;;;;;20517;6786;308190;-87
2021/12/20 16:36:26;;;;;;;7.37;5.13;;;5.20;50.00;;;;;;20725;6801;117044;-89
2021/12/20 16:39:02;;;;;;;9.83;5.50;;;5.30;49.90;;;;;;20724;6798;117793;-87
2021/12/20 17:20:17;;;;;;;13.83;9.80;;;4.50;52.30;;;;;;21294;6490;89534;-84
2021/12/20 17:22:43;;;;;;;15.47;13.83;;;4.50;52.50;;;;;;20765;6769;276214;-84
2021/12/20 17:25:09;;;;;;;17.45;15.13;;;4.90;52.20;;;;;;20603;6775;433964;-84
2021/12/20 17:27:34;;;;;;;20.10;17.60;;;5.30;51.00;;;;;;20513;6833;305981;-88
2021/12/20 17:30:00;;;;;;;16.35;14.40;;;5.80;50.20;;;;;;20840;6833;67401;-87
2021/12/20 17:32:25;;;;;;;16.80;13.57;;;5.80;49.90;;;;;;20730;6833;121393;-89
2021/12/20 17:34:52;;;;;;;18.73;14.18;;;5.70;49.80;;;;;;20520;6842;341010;-85
2021/12/20 17:37:17;;;;;;;16.23;13.43;;;5.70;49.80;;;;;;20531;6842;308545;-86
2021/12/20 17:39:44;;;;;;;12.77;11.52;;;5.90;48.80;;;;;;20738;6842;118835;-86
2021/12/20 17:42:10;;;;;;;14.87;11.73;;;5.60;49.50;;;;;;20739;6842;117917;-86
2021/12/20 17:44:35;;;;;;;16.52;13.43;;;5.60;49.20;;;;;;20524;6842;337363;-86
2021/12/20 17:47:03;;;;;;;15.40;13.50;;;5.90;48.30;;;;;;20516;6842;279538;-86
2021/12/20 17:49:27;;;;;;;19.77;17.80;;;5.90;48.30;;;;;;20503;6842;312250;-86
2021/12/20 17:51:54;;;;;;;15.63;12.67;;;6.20;47.90;;;;;;20738;6842;117978;-86
2021/12/20 17:54:19;;;;;;;15.70;13.90;;;6.00;48.10;;;;;;20530;6842;284693;-85
2021/12/20 17:56:45;;;;;;;17.55;13.70;;;6.00;48.00;;;;;;20602;6842;309956;-84
2021/12/20 17:59:10;;;;;;;12.67;11.03;;;6.20;47.70;;;;;;20770;6842;118060;-84
2021/12/20 18:01:35;;;;;;;16.33;11.23;;;6.10;47.70;;;;;;20766;6842;121797;-87
2021/12/20 18:04:02;;;;;;;17.27;14.18;;;5.70;48.20;;;;;;20511;6842;342330;-86
2021/12/20 18:06:27;;;;;;;15.70;10.80;;;5.70;48.20;;;;;;20675;6874;117103;-84
2021/12/20 18:08:53;;;;;;;11.75;10.35;;;5.60;48.30;;;;;;20658;6874;117155;-84
2021/12/20 18:11:18;;;;;;;17.40;9.98;;;5.40;48.70;;;;;;20684;6872;117823;-85
2021/12/20 18:13:45;;;;;;;21.00;13.90;;;5.00;49.40;;;;;;20681;6874;117472;-86
2021/12/20 18:16:10;;;;;;;16.90;13.50;;;5.00;49.50;;;;;;20673;6874;121273;-86
2021/12/20 18:18:36;;;;;;;15.83;13.57;;;4.90;49.90;;;;;;20433;6871;309197;-85
2021/12/20 18:21:01;;;;;;;14.50;10.95;;;5.10;50.00;;;;;;20639;6871;117862;-84
2021/12/20 18:23:27;;;;;;;16.77;10.30;;;5.10;49.80;;;;;;20663;6871;116735;-85
2021/12/20 18:25:53;;;;;;;12.50;10.18;;;4.80;49.70;;;;;;20646;6871;118392;-86
2021/12/20 19:22:11;;;;;;;18.63;12.77;;;2.70;52.40;;;;;;21252;6514;90290;-88
2021/12/20 19:24:36;;;;;;;14.50;11.63;;;2.60;52.60;;;;;;20805;6801;116825;-87
2021/12/20 19:27:02;;;;;;;17.43;13.43;;;2.50;52.60;;;;;;20533;6827;306738;-86
2021/12/20 19:29:31;;;;;;;17.93;10.87;;;2.90;52.90;;;;;;20783;6808;117241;-88
2021/12/20 19:31:57;;;;;;;15.57;10.60;;;2.90;52.90;;;;;;20828;6808;117077;-87
2021/12/20 19:34:23;;;;;;;15.93;10.15;;;2.70;53.00;;;;;;20839;6808;117253;-89
2021/12/20 19:36:53;;;;;;;27.80;19.60;;;2.70;53.00;;;;;;20832;6808;117286;-86
2021/12/20 19:39:14;;;;;;;29.45;18.60;;;2.60;53.20;;;;;;20550;6828;306606;-88
2021/12/20 19:41:40;;;;;;;72.93;36.70;;;2.80;53.80;;;;;;20818;6818;117417;-88
2021/12/20 19:44:08;;;;;;;106.97;50.40;;;2.80;53.30;;;;;;20834;6809;117378;-89
2021/12/20 19:46:34;;;;;;;26.23;18.63;;;2.70;53.50;;;;;;20560;6828;314110;-90
2021/12/20 19:48:59;;;;;;;20.33;13.20;;;2.90;53.80;;;;;;20795;6818;117428;-91
2021/12/20 19:51:25;;;;;;;19.45;12.15;;;3.00;53.30;;;;;;20630;6809;306502;-89
2021/12/20 19:53:51;;;;;;;18.17;10.37;;;3.10;53.30;;;;;;20779;6828;120634;-90
2021/12/20 19:56:18;;;;;;;13.80;11.93;;;3.20;53.00;;;;;;20545;6832;303352;-89
2021/12/20 19:58:42;;;;;;;20.17;10.67;;;3.20;53.00;;;;;;20838;6809;117189;-89
2021/12/20 20:01:08;;;;;;;15.87;12.67;;;3.20;52.70;;;;;;20603;6809;408647;-88
2021/12/20 20:03:34;;;;;;;16.83;15.00;;;3.30;52.80;;;;;;20601;6809;277647;-88
2021/12/20 20:06:00;;;;;;;17.20;14.73;;;3.80;52.70;;;;;;20572;6824;316811;-89
2021/12/20 20:08:25;;;;;;;13.13;11.77;;;3.80;52.40;;;;;;20578;6824;277688;-90
2021/12/20 20:10:52;;;;;;;13.57;11.40;;;4.10;50.80;;;;;;20539;6824;304434;-86
2021/12/20 20:13:17;;;;;;;12.00;9.80;;;4.10;50.80;;;;;;20695;6853;121337;-88
2021/12/20 20:15:43;;;;;;;10.63;9.13;;;3.90;50.70;;;;;;20717;6845;117697;-87
2021/12/20 20:18:08;;;;;;;12.87;9.57;;;3.50;51.10;;;;;;20755;6834;117611;-86
2021/12/20 20:20:35;;;;;;;14.63;11.60;;;2.90;52.00;;;;;;20716;6849;117455;-87
2021/12/20 20:23:00;;;;;;;12.93;10.70;;;2.90;52.00;;;;;;20784;6839;124535;-86
2021/12/20 20:25:26;;;;;;;14.23;11.68;;;2.70;52.40;;;;;;20546;6829;312317;-87
2021/12/20 20:27:52;;;;;;;12.23;9.88;;;2.80;52.50;;;;;;20832;6809;117198;-86
2021/12/20 20:30:20;;;;;;;15.20;11.10;;;2.80;52.50;;;;;;20807;6817;117672;-86
2021/12/20 20:32:43;;;;;;;14.90;10.70;;;2.70;52.70;;;;;;20818;6815;117232;-86
2021/12/20 20:35:09;;;;;;;12.00;10.13;;;2.50;53.00;;;;;;20806;6816;117212;-86
2021/12/20 20:37:35;;;;;;;13.40;11.87;;;2.60;53.30;;;;;;20607;6816;278176;-87
2021/12/20 20:40:01;;;;;;;12.63;8.80;;;2.60;53.30;;;;;;20817;6816;120957;-87
2021/12/20 20:42:27;;;;;;;19.27;14.07;;;2.60;52.80;;;;;;20820;6816;119805;-88
2021/12/20 20:44:52;;;;;;;20.17;14.52;;;2.50;52.90;;;;;;20792;6817;117818;-88
2021/12/20 20:47:17;;;;;;;16.85;13.07;;;2.30;53.10;;;;;;20814;6817;117749;-87
2021/12/20 20:49:43;;;;;;;15.93;13.27;;;2.20;53.40;;;;;;20590;6817;279209;-88
2021/12/20 20:52:12;;;;;;;17.27;14.55;;;2.70;52.80;;;;;;20598;6817;311793;-87
2021/12/20 20:54:38;;;;;;;18.37;13.23;;;2.70;52.80;;;;;;20809;6817;117232;-88
2021/12/20 20:57:04;;;;;;;20.12;14.18;;;2.50;52.70;;;;;;20786;6803;117864;-88
2021/12/20 20:59:30;;;;;;;20.10;15.80;;;2.50;52.70;;;;;;20624;6803;277218;-87
2021/12/20 21:01:55;;;;;;;18.63;13.03;;;2.60;52.90;;;;;;20849;6803;117198;-87
2021/12/20 21:04:25;;;;;;;17.43;13.07;;;2.60;52.60;;;;;;20856;6803;117588;-87
2021/12/20 21:06:49;;;;;;;17.58;12.00;;;2.40;52.80;;;;;;20778;6821;117629;-87
2021/12/20 21:09:15;;;;;;;12.60;11.03;;;2.10;53.50;;;;;;20836;6803;118324;-87
2021/12/20 21:11:41;;;;;;;17.37;10.47;;;2.10;53.50;;;;;;20825;6803;118023;-87
2021/12/20 21:14:07;;;;;;;12.83;10.03;;;2.00;53.80;;;;;;20738;6803;118219;-87
2021/12/20 21:16:32;;;;;;;10.80;9.05;;;1.90;54.10;;;;;;20834;6803;117201;-88
2021/12/20 21:18:58;;;;;;;9.07;8.17;;;1.90;54.30;;;;;;20745;6829;117794;-88
2021/12/20 21:21:24;;;;;;;14.87;8.07;;;1.80;54.50;;;;;;20852;6803;120200;-89
2021/12/20 21:23:50;;;;;;;12.67;9.03;;;1.80;54.50;;;;;;20876;6803;121927;-90
2021/12/20 21:26:15;;;;;;;16.30;9.10;;;1.80;54.50;;;;;;20814;6829;117494;-95
2021/12/20 21:28:41;;;;;;;22.60;14.05;;;1.70;54.50;;;;;;20888;6818;67869;-91
2021/12/20 21:31:06;;;;;;;29.17;18.17;;;1.70;54.80;;;;;;20797;6818;147355;-91
2021/12/20 21:33:32;;;;;;;19.13;13.17;;;1.70;55.00;;;;;;20781;6831;117965;-91
2021/12/20 21:35:58;;;;;;;15.97;12.43;;;1.60;55.20;;;;;;20812;6821;118389;-91
2021/12/20 21:38:24;;;;;;;18.87;15.73;;;1.60;55.20;;;;;;20609;6822;280898;-91
2021/12/20 21:40:50;;;;;;;14.02;12.52;;;1.90;55.30;;;;;;20833;6822;117749;-92
2021/12/20 21:43:15;;;;;;;12.77;11.10;;;2.00;54.70;;;;;;20848;6819;117288;-93
2021/12/20 21:45:40;;;;;;;20.33;15.83;;;1.90;54.60;;;;;;20585;6820;328120;-91
2021/12/20 21:48:06;;;;;;;15.48;10.27;;;2.10;54.40;;;;;;20820;6815;117231;-91
2021/12/20 21:50:32;;;;;;;14.93;10.30;;;2.20;53.90;;;;;;20816;6815;117177;-91
2021/12/20 21:52:57;;;;;;;18.83;11.12;;;2.10;54.00;;;;;;20804;6815;143956;-91
2021/12/20 21:55:23;;;;;;;19.45;12.35;;;1.90;54.20;;;;;;20835;6815;118374;-92
2021/12/20 21:57:48;;;;;;;15.30;11.18;;;1.80;54.40;;;;;;20820;6815;117580;-92
2021/12/20 22:00:14;;;;;;;13.85;11.85;;;1.80;54.70;;;;;;20830;6815;117211;-91
2021/12/20 22:02:40;;;;;;;15.83;13.27;;;1.70;54.80;;;;;;20616;6815;307433;-92
2021/12/20 22:05:05;;;;;;;21.00;14.93;;;1.90;55.00;;;;;;20615;6815;278194;-92
2021/12/20 22:07:31;;;;;;;19.83;15.43;;;2.30;54.10;;;;;;20620;6815;298340;-91
2021/12/20 22:09:56;;;;;;;28.85;23.05;;;2.70;53.30;;;;;;20621;6815;311577;-91
2021/12/20 22:12:23;;;;;;;25.93;19.73;;;3.10;51.80;;;;;;20643;6815;307532;-91
2021/12/20 22:14:48;;;;;;;27.97;18.73;;;3.10;52.10;;;;;;20833;6815;117147;-90
2021/12/20 22:17:14;;;;;;;29.25;22.92;;;2.90;52.50;;;;;;20585;6815;307291;-91
2021/12/20 22:19:40;;;;;;;30.90;22.60;;;3.00;52.70;;;;;;20611;6815;277502;-91
2021/12/20 22:22:06;;;;;;;24.40;16.67;;;3.00;52.10;;;;;;20820;6815;117402;-90
2021/12/20 22:24:31;;;;;;;16.30;12.77;;;2.90;52.10;;;;;;20829;6815;117324;-90
2021/12/20 22:26:57;;;;;;;23.50;18.75;;;2.60;53.20;;;;;;20600;6815;308104;-90
2021/12/20 22:29:22;;;;;;;15.30;12.87;;;2.60;52.70;;;;;;20848;6815;118308;-89
2021/12/20 22:31:48;;;;;;;17.67;12.02;;;2.50;52.50;;;;;;20934;6815;67529;-90
2021/12/20 22:34:13;;;;;;;19.20;15.80;;;2.20;52.80;;;;;;20606;6815;307052;-90
2021/12/20 22:36:40;;;;;;;19.75;15.20;;;2.20;53.50;;;;;;20819;6815;118143;-90
2021/12/20 22:39:05;;;;;;;17.90;13.07;;;2.20;52.90;;;;;;20805;6815;118626;-90
2021/12/20 22:41:31;;;;;;;16.90;12.55;;;2.00;53.10;;;;;;20817;6815;118108;-89
2021/12/20 22:43:57;;;;;;;18.90;14.52;;;1.80;53.70;;;;;;20823;6815;118421;-89
2021/12/20 22:46:22;;;;;;;22.23;15.98;;;1.60;54.00;;;;;;20827;6815;117191;-89
2021/12/20 22:48:49;;;;;;;23.20;16.30;;;1.50;54.40;;;;;;20824;6815;117317;-89
2021/12/20 22:51:13;;;;;;;26.15;17.17;;;1.40;54.70;;;;;;20825;6815;117456;-90
2021/12/20 22:53:39;;;;;;;26.87;20.08;;;1.20;54.80;;;;;;20617;6815;311629;-89
2021/12/20 22:56:04;;;;;;;29.13;21.83;;;1.40;54.20;;;;;;20617;6813;335916;-89
2021/12/20 22:58:30;;;;;;;33.97;23.40;;;1.80;52.90;;;;;;20877;6815;117523;-89
2021/12/20 23:00:59;;;;;;;27.53;20.33;;;1.60;52.70;;;;;;20818;6815;118921;-90
2021/12/20 23:03:25;;;;;;;23.20;17.47;;;1.60;52.60;;;;;;20812;6815;117767;-89
2021/12/20 23:05:50;;;;;;;25.83;21.97;;;1.40;53.10;;;;;;20610;6815;306655;-89
2021/12/20 23:08:16;;;;;;;27.73;19.55;;;1.50;53.10;;;;;;20822;6815;118965;-89
2021/12/20 23:10:41;;;;;;;22.27;15.67;;;1.50;52.80;;;;;;20827;6815;117189;-89
2021/12/20 23:13:20;;;;;;;16.00;12.07;;;1.20;53.10;;;;;;20807;6815;118914;-88
2021/12/20 23:15:43;;;;;;;16.43;10.93;;;1.20;53.10;;;;;;20812;6815;117146;-89
2021/12/20 23:18:08;;;;;;;19.98;10.98;;;1.10;53.40;;;;;;20822;6815;117645;-89
2021/12/20 23:20:34;;;;;;;17.73;11.40;;;1.00;53.70;;;;;;20822;6815;118325;-89
2021/12/20 23:23:01;;;;;;;20.67;15.00;;;0.90;54.00;;;;;;20598;6815;310806;-89
2021/12/20 23:25:25;;;;;;;17.83;12.80;;;1.10;54.40;;;;;;20831;6815;118651;-89
2021/12/20 23:27:51;;;;;;;18.33;14.90;;;1.20;54.00;;;;;;20641;6815;306160;-89
2021/12/20 23:30:17;;;;;;;14.43;12.73;;;1.40;53.50;;;;;;20842;6815;116374;-88
2021/12/20 23:32:42;;;;;;;18.30;14.10;;;1.40;53.40;;;;;;20647;6815;276849;-87
2021/12/20 23:35:08;;;;;;;17.17;14.05;;;1.50;53.50;;;;;;20661;6815;277137;-87
2021/12/20 23:37:37;;;;;;;18.07;11.27;;;1.80;52.90;;;;;;20858;6815;123809;-88
2021/12/20 23:40:02;;;;;;;13.43;10.45;;;1.80;52.50;;;;;;20846;6815;123398;-88
2021/12/20 23:42:46;;;;;;;17.10;13.30;;;1.50;52.80;;;;;;20611;6815;322587;-88
2021/12/20 23:45:07;;;;;;;15.15;13.65;;;1.60;53.20;;;;;;20564;6815;336123;-89
2021/12/20 23:47:32;;;;;;;13.67;10.97;;;1.90;52.60;;;;;;20837;6815;117854;-89
2021/12/20 23:49:59;;;;;;;17.90;13.43;;;1.80;52.60;;;;;;20616;6815;277646;-89
2021/12/20 23:52:24;;;;;;;16.13;13.47;;;1.80;52.60;;;;;;20614;6815;307031;-88
2021/12/20 23:54:50;;;;;;;16.63;13.17;;;2.20;51.90;;;;;;20610;6815;340523;-90
2021/12/20 23:57:16;;;;;;;16.00;12.83;;;2.20;51.90;;;;;;20620;6815;281346;-90
2021/12/20 23:59:42;;;;;;;16.83;12.45;;;2.30;51.50;;;;;;20624;6815;334503;-88
